createdAt,value
2023-09-09T00:02:22.856Z,86.60
2023-09-09T00:04:53.684Z,87.00
2023-09-09T00:07:21.627Z,87.00
2023-09-09T00:09:51.127Z,87.20
2023-09-09T00:12:19.014Z,87.80
2023-09-09T00:14:46.842Z,87.10
2023-09-09T00:17:14.717Z,87.10
2023-09-09T00:19:42.567Z,87.50
2023-09-09T00:22:10.443Z,88.40
2023-09-09T00:24:38.306Z,88.80
2023-09-09T00:27:07.654Z,89.40
2023-09-09T00:29:35.476Z,88.20
2023-09-09T00:32:03.361Z,88.70
2023-09-09T00:34:31.994Z,89.40
2023-09-09T00:36:59.928Z,88.40
2023-09-09T00:39:27.791Z,88.90
2023-09-09T00:41:55.649Z,87.10
2023-09-09T00:44:24.881Z,87.90
2023-09-09T00:46:53.961Z,87.60
2023-09-09T00:49:22.478Z,88.30
2023-09-09T00:51:51.230Z,88.60
2023-09-09T00:54:19.207Z,88.70
2023-09-09T00:56:47.433Z,89.10
2023-09-09T00:59:15.604Z,89.60
2023-09-09T01:01:46.394Z,89.40
2023-09-09T01:04:14.425Z,89.80
2023-09-09T01:06:42.985Z,89.60
2023-09-09T01:09:10.911Z,89.30
2023-09-09T01:11:38.795Z,89.40
2023-09-09T01:14:06.787Z,89.30
2023-09-09T01:16:34.813Z,90.00
2023-09-09T01:19:04.361Z,90.70
2023-09-09T01:21:34.066Z,91.10
2023-09-09T01:24:03.444Z,91.60
2023-09-09T01:26:31.331Z,92.10
2023-09-09T01:28:59.228Z,91.30
2023-09-09T01:31:27.182Z,92.20
2023-09-09T01:33:57.941Z,91.30
2023-09-09T01:36:26.152Z,91.80
2023-09-09T01:38:54.003Z,92.80
2023-09-09T01:41:23.292Z,93.10
2023-09-09T01:43:51.137Z,93.20
2023-09-09T01:46:19.349Z,93.20
2023-09-09T01:48:47.313Z,93.10
2023-09-09T01:51:15.163Z,91.30
2023-09-09T01:53:42.969Z,89.60
2023-09-09T01:56:10.886Z,91.20
2023-09-09T01:58:40.062Z,90.50
2023-09-09T02:01:07.964Z,89.60
2023-09-09T02:03:36.091Z,89.60
2023-09-09T02:06:04.483Z,89.50
2023-09-09T02:08:32.382Z,89.70
2023-09-09T02:11:00.242Z,89.90
2023-09-09T02:13:28.187Z,90.30
2023-09-09T02:16:06.456Z,90.10
2023-09-09T02:18:35.125Z,91.50
2023-09-09T02:21:03.245Z,91.70
2023-09-09T02:23:31.175Z,92.70
2023-09-09T02:25:59.160Z,92.90
2023-09-09T02:28:27.491Z,94.90
2023-09-09T02:30:55.830Z,95.80
2023-09-09T02:33:25.223Z,95.90
2023-09-09T02:35:53.400Z,96.50
2023-09-09T02:38:21.313Z,97.10
2023-09-09T02:40:49.131Z,98.00
2023-09-09T02:43:17.013Z,97.20
2023-09-09T02:45:44.857Z,95.50
2023-09-09T02:48:12.711Z,95.60
2023-09-09T02:50:42.093Z,95.70
2023-09-09T02:53:09.958Z,95.70
2023-09-09T02:55:37.815Z,96.70
2023-09-09T02:58:06.122Z,97.50
2023-09-09T03:00:34.018Z,96.40
2023-09-09T03:03:01.968Z,96.10
2023-09-09T03:05:29.916Z,96.00
2023-09-09T03:07:59.893Z,94.30
2023-09-09T03:10:27.894Z,92.60
2023-09-09T03:12:57.436Z,92.00
2023-09-09T03:15:25.391Z,92.60
2023-09-09T03:17:53.581Z,91.80
2023-09-09T03:20:23.131Z,91.50
2023-09-09T03:22:53.161Z,91.80
2023-09-09T03:25:22.322Z,91.80
2023-09-09T03:27:50.152Z,91.70
2023-09-09T03:30:18.100Z,92.20
2023-09-09T03:32:45.946Z,93.10
2023-09-09T03:35:13.939Z,94.00
2023-09-09T03:37:41.775Z,95.60
2023-09-09T03:40:10.625Z,97.10
2023-09-09T03:42:40.420Z,97.40
2023-09-09T03:45:10.673Z,98.70
2023-09-09T03:47:38.639Z,98.80
2023-09-09T03:50:07.101Z,98.90
2023-09-09T03:52:34.931Z,99.70
2023-09-09T03:55:02.786Z,99.70
2023-09-09T03:57:30.658Z,99.00
2023-09-09T03:59:59.847Z,97.70
2023-09-09T04:02:27.725Z,98.30
2023-09-09T04:04:55.546Z,97.50
2023-09-09T04:07:23.423Z,97.20
2023-09-09T04:09:51.259Z,97.10
2023-09-09T04:12:19.148Z,95.90
2023-09-09T04:14:47.237Z,95.50
2023-09-09T04:17:16.476Z,96.10
2023-09-09T04:19:44.419Z,97.00
2023-09-09T04:22:12.253Z,98.00
2023-09-09T04:24:40.188Z,98.60
2023-09-09T04:27:08.079Z,98.90
2023-09-09T04:29:35.957Z,99.50
2023-09-09T04:32:03.929Z,99.90
2023-09-09T04:34:33.112Z,99.90
2023-09-09T04:37:00.949Z,99.90
2023-09-09T04:39:28.752Z,99.90
2023-09-09T04:41:56.572Z,99.70
2023-09-09T04:44:24.457Z,98.50
2023-09-09T04:46:52.337Z,96.70
2023-09-09T04:49:20.381Z,94.30
2023-09-09T04:51:49.565Z,93.20
2023-09-09T04:54:19.272Z,93.10
2023-09-09T04:56:47.737Z,92.60
2023-09-09T04:59:15.643Z,92.50
2023-09-09T05:01:43.749Z,93.00
2023-09-09T05:04:11.712Z,93.10
2023-09-09T05:06:39.631Z,93.20
2023-09-09T05:09:08.860Z,93.70
2023-09-09T05:11:36.714Z,94.70
2023-09-09T05:14:04.569Z,94.80
2023-09-09T05:16:33.049Z,94.90
2023-09-09T05:19:00.970Z,96.10
2023-09-09T05:21:28.831Z,97.20
2023-09-09T05:23:56.667Z,97.60
2023-09-09T05:26:25.872Z,99.60
2023-09-09T05:28:53.877Z,99.80
2023-09-09T05:31:21.812Z,98.10
2023-09-09T05:33:49.689Z,95.20
2023-09-09T05:36:17.576Z,93.70
2023-09-09T05:38:45.379Z,90.10
2023-09-09T05:41:13.230Z,88.20
2023-09-09T05:43:42.395Z,86.00
2023-09-09T05:46:10.346Z,84.10
2023-09-09T05:48:38.541Z,83.60
2023-09-09T05:51:06.350Z,83.90
2023-09-09T05:53:34.405Z,85.60
2023-09-09T05:56:02.455Z,86.40
2023-09-09T05:58:30.446Z,87.40
2023-09-09T06:00:59.674Z,86.50
2023-09-09T06:03:28.232Z,85.60
2023-09-09T06:05:56.450Z,83.00
2023-09-09T06:08:24.534Z,81.80
2023-09-09T06:10:52.427Z,80.50
2023-09-09T06:13:20.270Z,78.00
2023-09-09T06:15:48.245Z,76.10
2023-09-09T06:18:17.435Z,75.20
2023-09-09T06:20:48.868Z,76.20
2023-09-09T06:23:16.974Z,77.90
2023-09-09T06:25:44.838Z,78.00
2023-09-09T06:28:12.714Z,74.30
2023-09-09T06:30:44.069Z,72.50
2023-09-09T06:33:12.297Z,71.10
2023-09-09T06:35:50.326Z,70.20
2023-09-09T06:38:18.444Z,69.00
2023-09-09T06:40:46.993Z,68.60
2023-09-09T06:43:15.808Z,68.00
2023-09-09T06:45:43.651Z,69.60
2023-09-09T06:48:11.805Z,71.00
2023-09-09T06:50:39.818Z,71.90
2023-09-09T06:53:09.044Z,72.80
2023-09-09T06:55:36.898Z,72.90
2023-09-09T06:58:05.338Z,73.30
2023-09-09T07:00:34.222Z,73.50
2023-09-09T07:03:02.101Z,73.30
2023-09-09T07:05:30.001Z,73.10
2023-09-09T07:07:57.837Z,72.60
2023-09-09T07:10:27.135Z,73.00
2023-09-09T07:12:55.844Z,73.70
2023-09-09T07:15:23.703Z,72.90
2023-09-09T07:17:51.642Z,73.30
2023-09-09T07:20:19.578Z,70.70
2023-09-09T07:22:48.242Z,70.00
2023-09-09T07:25:16.197Z,68.80
2023-09-09T07:27:45.489Z,69.60
2023-09-09T07:30:13.564Z,68.90
2023-09-09T07:32:41.581Z,68.30
2023-09-09T07:35:10.263Z,67.70
2023-09-09T07:37:38.153Z,67.20
2023-09-09T07:40:07.732Z,66.20
2023-09-09T07:42:35.567Z,65.20
2023-09-09T07:45:05.256Z,64.50
2023-09-09T07:47:33.111Z,64.30
2023-09-09T07:50:00.971Z,63.60
2023-09-09T07:52:29.400Z,64.00
2023-09-09T07:54:58.742Z,64.10
2023-09-09T07:57:26.660Z,62.80
2023-09-09T07:59:54.491Z,62.10
2023-09-09T08:02:24.250Z,60.30
2023-09-09T08:04:52.161Z,62.90
2023-09-09T08:07:20.122Z,63.10
2023-09-09T08:09:47.991Z,63.50
2023-09-09T08:12:15.839Z,63.90
2023-09-09T08:14:44.173Z,63.80
2023-09-09T08:17:12.831Z,63.40
2023-09-09T08:19:44.338Z,64.50
2023-09-09T08:22:12.382Z,64.70
2023-09-09T08:24:40.243Z,62.50
2023-09-09T08:27:08.082Z,61.40
2023-09-09T08:29:35.903Z,60.90
2023-09-09T08:32:03.957Z,60.50
2023-09-09T08:34:31.788Z,61.70
2023-09-09T08:37:00.949Z,61.10
2023-09-09T08:39:29.838Z,61.00
2023-09-09T08:42:04.623Z,61.20
2023-09-09T08:44:39.857Z,59.30
2023-09-09T08:47:08.128Z,58.60
2023-09-09T08:49:37.697Z,58.40
2023-09-09T08:52:17.476Z,58.90
2023-09-09T08:54:46.063Z,57.20
2023-09-09T08:57:13.985Z,57.90
2023-09-09T08:59:43.372Z,57.20
2023-09-09T09:02:12.335Z,57.00
2023-09-09T09:04:40.640Z,57.70
2023-09-09T09:07:09.921Z,59.20
2023-09-09T09:09:37.780Z,60.10
2023-09-09T09:12:06.318Z,58.50
2023-09-09T09:14:34.268Z,56.70
2023-09-09T09:17:04.903Z,56.40
2023-09-09T09:19:32.790Z,58.30
2023-09-09T09:22:02.034Z,57.60
2023-09-09T09:24:31.221Z,57.40
2023-09-09T09:27:00.062Z,57.90
2023-09-09T09:29:39.824Z,58.40
2023-09-09T09:32:08.013Z,58.20
2023-09-09T09:34:36.555Z,57.60
2023-09-09T09:37:11.555Z,56.00
2023-09-09T09:39:41.418Z,55.90
2023-09-09T09:42:13.164Z,56.40
2023-09-09T09:44:41.361Z,57.00
2023-09-09T09:47:12.252Z,55.90
2023-09-09T09:49:41.726Z,55.60
2023-09-09T09:52:10.701Z,53.90
2023-09-09T09:54:40.884Z,53.40
2023-09-09T09:57:09.300Z,55.30
2023-09-09T09:59:39.328Z,55.30
2023-09-09T10:02:07.610Z,54.90
2023-09-09T10:04:40.246Z,54.90
2023-09-09T10:07:11.588Z,55.40
2023-09-09T10:09:46.942Z,55.40
2023-09-09T10:12:29.815Z,53.80
2023-09-09T10:15:07.909Z,54.30
2023-09-09T10:17:37.488Z,53.20
2023-09-09T10:20:07.798Z,51.00
2023-09-09T10:22:35.929Z,52.00
2023-09-09T10:25:06.827Z,53.00
2023-09-09T10:27:35.239Z,52.70
2023-09-09T10:30:04.331Z,51.20
2023-09-09T10:32:32.945Z,51.10
2023-09-09T10:35:02.272Z,50.80
2023-09-09T10:37:34.467Z,49.40
2023-09-09T10:40:04.127Z,49.50
2023-09-09T10:42:33.974Z,49.20
2023-09-09T10:45:26.923Z,49.10
2023-09-09T10:48:00.244Z,47.90
2023-09-09T10:50:46.047Z,47.50
2023-09-09T10:53:19.886Z,47.20
2023-09-09T10:55:49.015Z,49.00
2023-09-09T10:58:19.455Z,50.50
2023-09-09T11:00:49.702Z,50.70
2023-09-09T11:03:20.466Z,50.40
2023-09-09T11:06:08.784Z,48.70
2023-09-09T11:08:37.912Z,48.80
2023-09-09T11:11:11.898Z,49.30
2023-09-09T11:13:42.879Z,49.20
2023-09-09T11:16:28.611Z,47.80
2023-09-09T11:18:58.101Z,47.00
2023-09-09T11:21:26.160Z,47.20
2023-09-09T11:23:54.586Z,50.70
2023-09-09T11:26:22.965Z,49.60
2023-09-09T11:28:52.890Z,48.70
2023-09-09T11:31:20.839Z,48.50
2023-09-09T11:33:48.693Z,48.30
2023-09-09T11:36:19.894Z,49.60
2023-09-09T11:38:47.759Z,48.30
2023-09-09T11:41:22.889Z,48.10
2023-09-09T11:44:05.320Z,48.40
2023-09-09T11:46:36.490Z,48.00
2023-09-09T11:49:05.072Z,48.00
2023-09-09T11:51:33.586Z,48.30
2023-09-09T11:54:01.856Z,48.20
2023-09-09T11:56:30.734Z,48.10
2023-09-09T11:58:58.609Z,48.50
2023-09-09T12:01:27.919Z,48.30
2023-09-09T12:04:07.814Z,47.30
2023-09-09T12:06:37.146Z,48.40
2023-09-09T12:09:06.966Z,47.20
2023-09-09T12:11:36.309Z,47.70
2023-09-09T12:14:04.685Z,47.60
2023-09-09T12:16:35.193Z,46.70
2023-09-09T12:19:03.106Z,46.10
2023-09-09T12:21:33.084Z,45.30
2023-09-09T12:24:02.092Z,46.30
2023-09-09T12:26:30.534Z,45.30
2023-09-09T12:29:09.341Z,45.80
2023-09-09T12:31:52.681Z,46.00
2023-09-09T12:34:21.449Z,45.60
2023-09-09T12:36:49.701Z,45.70
2023-09-09T12:39:25.548Z,46.00
2023-09-09T12:42:03.459Z,45.60
2023-09-09T12:44:33.553Z,45.60
2023-09-09T12:47:05.233Z,45.10
2023-09-09T12:49:34.406Z,45.60
2023-09-09T12:52:02.357Z,45.10
2023-09-09T12:54:30.287Z,44.80
2023-09-09T12:56:58.227Z,45.00
2023-09-09T12:59:26.121Z,45.20
2023-09-09T13:01:56.489Z,45.40
2023-09-09T13:04:26.685Z,45.20
2023-09-09T13:06:55.065Z,44.70
2023-09-09T13:09:23.571Z,45.40
2023-09-09T13:11:51.623Z,44.60
2023-09-09T13:14:26.157Z,44.30
2023-09-09T13:16:55.427Z,44.80
2023-09-09T13:19:25.596Z,44.20
2023-09-09T13:21:57.023Z,43.40
2023-09-09T13:24:24.877Z,43.20
2023-09-09T13:26:52.742Z,44.70
2023-09-09T13:29:20.592Z,44.80
2023-09-09T13:31:48.576Z,44.60
2023-09-09T13:34:16.544Z,44.80
2023-09-09T13:36:44.380Z,43.90
2023-09-09T13:39:13.564Z,43.90
2023-09-09T13:41:41.557Z,43.60
2023-09-09T13:44:09.431Z,43.30
2023-09-09T13:46:37.312Z,43.70
2023-09-09T13:49:05.337Z,43.20
2023-09-09T13:51:33.227Z,42.90
2023-09-09T13:54:01.323Z,43.40
2023-09-09T13:56:30.752Z,43.00
2023-09-09T13:58:59.687Z,42.90
2023-09-09T14:01:27.842Z,42.60
2023-09-09T14:03:55.990Z,43.30
2023-09-09T14:06:23.929Z,42.90
2023-09-09T14:08:52.719Z,42.60
2023-09-09T14:11:20.639Z,42.60
2023-09-09T14:13:49.839Z,43.20
2023-09-09T14:16:17.745Z,42.90
2023-09-09T14:18:45.729Z,42.40
2023-09-09T14:21:13.613Z,43.10
2023-09-09T14:23:42.026Z,42.60
2023-09-09T14:26:09.931Z,42.80
2023-09-09T14:28:38.044Z,42.90
2023-09-09T14:31:07.519Z,42.60
2023-09-09T14:33:35.435Z,42.60
2023-09-09T14:36:03.395Z,42.60
2023-09-09T14:38:31.263Z,42.80
2023-09-09T14:40:59.185Z,42.40
2023-09-09T14:43:27.071Z,41.60
2023-09-09T14:45:54.925Z,42.30
2023-09-09T14:48:24.252Z,42.60
2023-09-09T14:50:54.350Z,42.50
2023-09-09T14:53:22.334Z,42.90
2023-09-09T14:55:50.525Z,42.60
2023-09-09T14:58:18.398Z,42.90
2023-09-09T15:00:46.348Z,43.10
2023-09-09T15:03:14.225Z,43.00
2023-09-09T15:05:43.407Z,43.30
2023-09-09T15:08:11.254Z,42.80
2023-09-09T15:10:39.064Z,43.60
2023-09-09T15:13:06.905Z,42.50
2023-09-09T15:15:38.635Z,43.00
2023-09-09T15:18:08.535Z,42.50
2023-09-09T15:20:36.545Z,42.40
2023-09-09T15:23:05.960Z,42.70
2023-09-09T15:25:33.849Z,42.70
2023-09-09T15:28:01.711Z,43.40
2023-09-09T15:30:29.532Z,42.90
2023-09-09T15:32:57.491Z,42.90
2023-09-09T15:35:29.516Z,43.20
2023-09-09T15:37:57.413Z,43.00
2023-09-09T15:40:26.612Z,43.70
2023-09-09T15:42:55.362Z,43.10
2023-09-09T15:45:23.295Z,42.90
2023-09-09T15:47:51.235Z,43.50
2023-09-09T15:50:19.313Z,42.90
2023-09-09T15:52:47.500Z,43.30
2023-09-09T15:55:15.551Z,44.00
2023-09-09T15:57:44.702Z,43.60
2023-09-09T16:00:12.878Z,44.10
2023-09-09T16:02:40.808Z,44.80
2023-09-09T16:05:08.813Z,45.00
2023-09-09T16:07:41.879Z,44.80
2023-09-09T16:10:10.779Z,44.70
2023-09-09T16:12:38.621Z,45.20
2023-09-09T16:15:09.637Z,45.80
2023-09-09T16:17:37.522Z,45.00
2023-09-09T16:20:06.213Z,45.10
2023-09-09T16:22:34.150Z,45.20
2023-09-09T16:25:04.416Z,44.70
2023-09-09T16:27:32.687Z,44.90
2023-09-09T16:30:01.007Z,45.70
2023-09-09T16:32:30.447Z,45.50
2023-09-09T16:35:00.156Z,45.80
2023-09-09T16:37:28.237Z,46.30
2023-09-09T16:39:56.241Z,46.60
2023-09-09T16:42:24.127Z,46.60
2023-09-09T16:44:51.949Z,47.00
2023-09-09T16:47:19.789Z,46.90
2023-09-09T16:49:49.737Z,46.90
2023-09-09T16:52:17.719Z,46.80
2023-09-09T16:54:45.590Z,47.20
2023-09-09T16:57:13.420Z,47.30
2023-09-09T16:59:42.221Z,47.40
2023-09-09T17:02:10.906Z,47.90
2023-09-09T17:04:38.875Z,48.00
2023-09-09T17:07:08.097Z,48.60
2023-09-09T17:09:35.983Z,50.00
2023-09-09T17:12:04.105Z,51.20
2023-09-09T17:14:32.610Z,52.00
2023-09-09T17:17:00.637Z,52.90
2023-09-09T17:19:29.696Z,52.90
2023-09-09T17:21:59.172Z,53.20
2023-09-09T17:24:28.351Z,53.40
2023-09-09T17:26:56.234Z,54.30
2023-09-09T17:29:24.111Z,54.70
2023-09-09T17:31:52.373Z,55.10
2023-09-09T17:34:20.278Z,55.70
2023-09-09T17:36:48.130Z,56.00
2023-09-09T17:39:17.132Z,56.60
2023-09-09T17:41:46.451Z,56.70
2023-09-09T17:44:14.521Z,56.90
2023-09-09T17:46:42.509Z,57.30
2023-09-09T17:49:10.424Z,57.80
2023-09-09T17:51:38.263Z,58.50
2023-09-09T17:54:06.539Z,59.10
2023-09-09T17:56:35.367Z,59.50
2023-09-09T17:59:04.717Z,60.10
2023-09-09T18:01:32.640Z,60.20
2023-09-09T18:04:02.152Z,60.40
2023-09-09T18:06:30.175Z,60.60
2023-09-09T18:08:58.047Z,60.80
2023-09-09T18:11:25.914Z,61.00
2023-09-09T18:13:53.925Z,61.40
2023-09-09T18:16:24.310Z,61.50
2023-09-09T18:18:52.316Z,61.30
2023-09-09T18:21:20.161Z,61.30
2023-09-09T18:23:48.010Z,61.50
2023-09-09T18:26:15.852Z,61.70
2023-09-09T18:28:43.683Z,62.00
2023-09-09T18:31:13.084Z,62.10
2023-09-09T18:33:42.560Z,62.70
2023-09-09T18:36:10.413Z,63.30
2023-09-09T18:38:40.064Z,63.70
2023-09-09T18:41:08.091Z,63.90
2023-09-09T18:43:36.385Z,64.10
2023-09-09T18:46:04.354Z,64.40
2023-09-09T18:48:32.219Z,64.70
2023-09-09T18:51:01.439Z,64.90
2023-09-09T18:53:31.663Z,65.30
2023-09-09T18:55:59.579Z,65.40
2023-09-09T18:58:27.457Z,65.50
2023-09-09T19:00:55.601Z,65.80
2023-09-09T19:03:24.302Z,66.20
2023-09-09T19:05:52.449Z,66.40
2023-09-09T19:08:21.610Z,66.60
2023-09-09T19:10:49.505Z,66.90
2023-09-09T19:13:17.351Z,67.00
2023-09-09T19:15:45.224Z,67.10
2023-09-09T19:18:13.096Z,67.40
2023-09-09T19:20:40.954Z,67.80
2023-09-09T19:23:08.810Z,68.00
2023-09-09T19:25:38.996Z,68.40
2023-09-09T19:28:08.993Z,68.50
2023-09-09T19:30:37.089Z,68.70
2023-09-09T19:33:05.439Z,68.90
2023-09-09T19:35:33.290Z,69.30
2023-09-09T19:38:02.412Z,69.40
2023-09-09T19:40:30.522Z,69.90
2023-09-09T19:42:59.678Z,70.20
2023-09-09T19:45:27.672Z,70.70
2023-09-09T19:47:55.577Z,71.00
2023-09-09T19:50:23.578Z,71.50
2023-09-09T19:52:51.590Z,72.20
2023-09-09T19:55:19.521Z,73.00
2023-09-09T19:57:47.762Z,74.00
2023-09-09T20:00:17.850Z,74.70
2023-09-09T20:02:46.050Z,74.80
2023-09-09T20:05:13.963Z,74.60
2023-09-09T20:07:41.835Z,75.10
2023-09-09T20:10:11.182Z,74.50
2023-09-09T20:12:39.463Z,74.70
2023-09-09T20:15:08.582Z,75.20
2023-09-09T20:17:38.272Z,74.80
2023-09-09T20:20:11.347Z,75.20
2023-09-09T20:22:39.224Z,75.00
2023-09-09T20:25:07.636Z,75.40
2023-09-09T20:27:35.462Z,76.10
2023-09-09T20:30:04.255Z,76.80
2023-09-09T20:32:32.199Z,76.70
2023-09-09T20:35:09.642Z,76.60
2023-09-09T20:37:51.746Z,76.20
2023-09-09T20:40:21.982Z,75.90
2023-09-09T20:42:56.579Z,75.50
2023-09-09T20:45:25.744Z,76.10
2023-09-09T20:47:55.879Z,76.10
2023-09-09T20:50:26.340Z,76.20
2023-09-09T20:52:55.449Z,76.10
2023-09-09T20:55:24.324Z,75.50
2023-09-09T20:57:52.424Z,75.80
2023-09-09T21:00:21.286Z,75.90
2023-09-09T21:02:51.855Z,75.90
2023-09-09T21:05:21.552Z,76.00
2023-09-09T21:07:51.069Z,76.10
2023-09-09T21:10:19.782Z,76.10
2023-09-09T21:12:49.603Z,76.30
2023-09-09T21:15:18.609Z,76.30
2023-09-09T21:17:46.998Z,76.40
2023-09-09T21:20:15.590Z,76.30
2023-09-09T21:22:43.515Z,76.70
2023-09-09T21:25:12.751Z,77.10
2023-09-09T21:27:40.740Z,77.00
2023-09-09T21:30:09.266Z,77.80
2023-09-09T21:32:37.246Z,78.20
2023-09-09T21:35:05.588Z,78.20
2023-09-09T21:37:33.536Z,78.40
2023-09-09T21:40:01.397Z,78.70
2023-09-09T21:42:30.604Z,78.90
2023-09-09T21:44:58.513Z,79.20
2023-09-09T21:47:26.418Z,79.60
2023-09-09T21:49:54.378Z,80.00
2023-09-09T21:52:22.356Z,80.30
2023-09-09T21:54:50.349Z,80.60
2023-09-09T21:57:18.508Z,80.90
2023-09-09T21:59:47.869Z,81.00
2023-09-09T22:02:15.844Z,81.80
2023-09-09T22:04:43.704Z,81.40
2023-09-09T22:07:11.544Z,81.50
2023-09-09T22:09:39.385Z,81.60
2023-09-09T22:12:07.648Z,81.80
2023-09-09T22:14:35.458Z,82.20
2023-09-09T22:17:05.285Z,82.40
2023-09-09T22:19:33.269Z,82.30
2023-09-09T22:22:01.165Z,82.30
2023-09-09T22:24:29.011Z,82.10
2023-09-09T22:27:00.427Z,82.10
2023-09-09T22:29:28.563Z,82.30
2023-09-09T22:31:58.359Z,82.20
2023-09-09T22:34:27.704Z,82.40
2023-09-09T22:36:56.251Z,82.30
2023-09-09T22:39:24.173Z,82.20
2023-09-09T22:41:52.044Z,82.20
2023-09-09T22:44:19.885Z,82.40
2023-09-09T22:46:47.782Z,82.50
2023-09-09T22:49:16.154Z,82.60
2023-09-09T22:51:45.356Z,82.70
2023-09-09T22:54:13.231Z,82.50
2023-09-09T22:56:41.055Z,82.60
2023-09-09T22:59:10.140Z,82.90
2023-09-09T23:01:39.153Z,82.70
2023-09-09T23:04:07.193Z,82.60
2023-09-09T23:06:35.139Z,82.00
2023-09-09T23:09:04.584Z,82.80
2023-09-09T23:11:32.439Z,84.30
2023-09-09T23:14:00.327Z,83.80
2023-09-09T23:16:28.372Z,84.10
2023-09-09T23:18:56.269Z,84.00
2023-09-09T23:21:24.115Z,83.50
2023-09-09T23:23:52.122Z,84.00
2023-09-09T23:26:21.334Z,83.90
2023-09-09T23:28:49.169Z,84.30
2023-09-09T23:31:17.120Z,84.80
2023-09-09T23:33:44.946Z,85.30
2023-09-09T23:36:12.776Z,84.70
2023-09-09T23:38:41.148Z,85.00
2023-09-09T23:41:09.830Z,85.40
2023-09-09T23:43:39.294Z,85.00
2023-09-09T23:46:07.231Z,85.80
2023-09-09T23:48:35.093Z,85.60
2023-09-09T23:51:03.200Z,86.00
2023-09-09T23:53:31.410Z,85.70
2023-09-09T23:55:59.376Z,85.70
2023-09-09T23:58:27.212Z,86.30
